Terminal Aerodrome Forecast
Issued by NWS Midland/Odessa, TX

Home | Current Version | Previous Version | Text Only | Print | Product List | Glossary On
Versions: 1 2 3 4 5 6 7 8 9 10 11 12 13 14 15 16 17 18 19 20
572
FTUS44 KMAF 270714 AAB
TAFMAF
TAF AMD
KMAF 270714Z 2707/2806 02014G20KT P6SM SCT250
     FM271000 03011KT P6SM SCT250
     FM271900 11008KT P6SM SCT250=

USA.gov is the U.S. government's official web portal to all federal, state and local government web resources and services.